Terminal Aerodrome Forecast
Issued by NWS Wilmington, OH

Current Version | Previous Version | Graphics & Text | Print | Product List | Glossary On
Versions: 1 2 3 4 5 6 7 8 9 10 11 12 13 14 15 16 17 18 19 20 21 22 23 24 25 26 27 28 29 30
000
FTUS41 KILN 261500 AAA
TAFCVG
TAF AMD
KCVG 261505Z 2615/2718 19012G20KT P6SM SCT035
     FM261800 19014G22KT P6SM VCTS BKN040CB
      TEMPO 2619/2622 3SM TSRA BR OVC022CB
     FM270100 20012KT P6SM SCT040 BKN250
     FM270600 20010KT P6SM BKN012
     FM271500 22012KT P6SM BKN022=

USA.gov is the U.S. government's official web portal to all federal, state and local government web resources and services.